createdAt,value
2022-09-10T00:01:49.397Z,9.60
2022-09-10T00:04:18.438Z,9.30
2022-09-10T00:06:48.503Z,8.80
2022-09-10T00:11:47.924Z,9.90
2022-09-10T00:16:49.205Z,8.90
2022-09-10T00:19:19.535Z,8.20
2022-09-10T00:21:51.321Z,9.40
2022-09-10T00:24:23.124Z,9.80
2022-09-10T00:26:52.835Z,9.80
2022-09-10T00:29:23.407Z,8.80
2022-09-10T00:31:53.863Z,9.50
2022-09-10T00:34:25.473Z,8.50
2022-09-10T00:36:56.245Z,7.70
2022-09-10T00:39:26.640Z,8.90
2022-09-10T00:41:56.768Z,10.50
2022-09-10T00:44:42.377Z,10.50
2022-09-10T00:47:22.567Z,12.30
2022-09-10T00:50:03.571Z,12.30
2022-09-10T00:52:38.894Z,11.40
2022-09-10T00:55:13.168Z,9.90
2022-09-10T00:57:43.636Z,10.30
2022-09-10T01:00:15.332Z,9.00
2022-09-10T01:02:45.424Z,13.00
2022-09-10T01:05:17.864Z,11.00
2022-09-10T01:07:48.875Z,9.50
2022-09-10T01:10:31.241Z,8.80
2022-09-10T01:13:38.617Z,9.20
2022-09-10T01:16:18.367Z,8.50
2022-09-10T01:22:24.176Z,7.60
2022-09-10T01:24:58.082Z,6.70
2022-09-10T01:27:48.522Z,7.30
2022-09-10T01:30:18.512Z,9.00
2022-09-10T01:33:09.353Z,8.80
2022-09-10T01:35:52.105Z,7.60
2022-09-10T01:38:27.517Z,9.40
2022-09-10T01:40:59.647Z,8.20
2022-09-10T01:43:35.818Z,9.20
2022-09-10T01:46:27.387Z,9.20
2022-09-10T01:49:28.549Z,8.40
2022-09-10T01:52:29.777Z,9.80
2022-09-10T01:55:29.819Z,8.10
2022-09-10T01:58:34.421Z,7.90
2022-09-10T02:01:29.109Z,7.40
2022-09-10T02:04:03.487Z,7.30
2022-09-10T02:06:39.068Z,6.50
2022-09-10T02:09:11.219Z,8.20
2022-09-10T02:11:50.262Z,9.40
2022-09-10T02:14:39.996Z,8.70
2022-09-10T02:17:41.277Z,7.10
2022-09-10T02:20:15.021Z,6.60
2022-09-10T02:22:52.157Z,7.70
2022-09-10T02:25:22.960Z,7.50
2022-09-10T02:27:59.457Z,8.50
2022-09-10T02:30:29.720Z,7.80
2022-09-10T02:35:31.807Z,9.60
2022-09-10T02:38:01.805Z,8.20
2022-09-10T02:40:31.995Z,17.00
2022-09-10T02:45:31.486Z,8.10
2022-09-10T02:50:34.379Z,8.60
2022-09-10T02:53:05.403Z,8.70
2022-09-10T02:58:04.104Z,10.40
2022-09-10T03:00:34.355Z,12.40
2022-09-10T03:03:03.544Z,12.20
2022-09-10T03:05:33.698Z,12.30
2022-09-10T03:08:03.524Z,10.60
2022-09-10T03:10:34.689Z,11.50
2022-09-10T03:13:05.142Z,10.00
2022-09-10T03:15:36.661Z,11.80
2022-09-10T03:18:07.187Z,11.30
2022-09-10T03:20:37.548Z,12.40
2022-09-10T03:23:07.656Z,11.50
2022-09-10T03:25:38.754Z,11.40
2022-09-10T03:30:38.720Z,9.20
2022-09-10T03:33:08.550Z,11.30
2022-09-10T03:35:39.128Z,11.30
2022-09-10T03:38:09.441Z,10.30
2022-09-10T03:40:39.905Z,9.10
2022-09-10T03:43:11.044Z,10.60
2022-09-10T03:45:40.773Z,8.90
2022-09-10T03:48:11.921Z,9.00
2022-09-10T03:50:41.966Z,8.20
2022-09-10T03:53:16.827Z,9.00
2022-09-10T03:55:48.797Z,8.60
2022-09-10T03:58:19.732Z,8.60
2022-09-10T04:00:48.770Z,9.00
2022-09-10T04:03:20.602Z,8.30
2022-09-10T04:05:51.046Z,8.50
2022-09-10T04:08:21.675Z,8.00
2022-09-10T04:10:52.935Z,9.30
2022-09-10T04:13:22.969Z,8.50
2022-09-10T04:15:53.664Z,8.20
2022-09-10T04:18:24.112Z,9.20
2022-09-10T04:25:53.520Z,9.30
2022-09-10T04:28:22.378Z,9.50
2022-09-10T04:30:52.400Z,8.80
2022-09-10T04:33:25.820Z,10.30
2022-09-10T04:35:56.825Z,10.00
2022-09-10T04:38:26.061Z,9.40
2022-09-10T04:40:55.885Z,12.80
2022-09-10T04:43:28.952Z,11.40
2022-09-10T04:45:59.741Z,11.80
2022-09-10T04:48:28.796Z,10.10
2022-09-10T04:51:15.151Z,12.50
2022-09-10T04:53:47.765Z,13.60
2022-09-10T04:56:17.701Z,21.40
2022-09-10T04:58:47.384Z,15.30
2022-09-10T05:01:16.429Z,14.00
2022-09-10T05:03:47.753Z,13.40
2022-09-10T05:06:17.334Z,13.30
2022-09-10T05:08:48.573Z,14.70
2022-09-10T05:11:19.943Z,23.90
2022-09-10T05:13:49.949Z,15.40
2022-09-10T05:16:22.301Z,14.20
2022-09-10T05:18:51.404Z,15.00
2022-09-10T05:21:22.761Z,15.10
2022-09-10T05:23:53.179Z,23.00
2022-09-10T05:26:24.604Z,13.40
2022-09-10T05:28:55.378Z,11.60
2022-09-10T05:33:55.578Z,9.60
2022-09-10T05:36:24.803Z,9.10
2022-09-10T05:38:55.361Z,13.20
2022-09-10T05:41:25.018Z,13.80
2022-09-10T05:43:54.963Z,10.20
2022-09-10T05:46:24.970Z,9.70
2022-09-10T05:48:56.317Z,9.10
2022-09-10T05:51:29.105Z,10.00
2022-09-10T05:54:00.859Z,10.60
2022-09-10T05:56:32.814Z,10.40
2022-09-10T05:59:04.267Z,10.80
2022-09-10T06:01:34.384Z,10.30
2022-09-10T06:04:05.843Z,10.60
2022-09-10T06:06:35.145Z,11.40
2022-09-10T06:09:08.957Z,9.90
2022-09-10T06:12:07.431Z,10.30
2022-09-10T06:14:37.361Z,9.20
2022-09-10T06:17:06.230Z,9.60
2022-09-10T06:19:35.123Z,10.40
2022-09-10T06:22:04.217Z,10.00
2022-09-10T06:24:38.529Z,10.40
2022-09-10T06:29:37.033Z,8.90
2022-09-10T06:32:06.540Z,9.30
2022-09-10T06:34:36.140Z,9.00
2022-09-10T06:37:06.465Z,8.20
2022-09-10T06:39:37.750Z,8.30
2022-09-10T06:44:54.598Z,9.50
2022-09-10T06:50:40.345Z,9.10
2022-09-10T06:53:12.009Z,9.80
2022-09-10T06:55:40.992Z,7.80
2022-09-10T06:58:09.878Z,8.00
2022-09-10T07:00:40.107Z,9.80
2022-09-10T07:03:09.199Z,10.20
2022-09-10T07:05:39.121Z,10.40
2022-09-10T07:08:08.112Z,9.00
2022-09-10T07:10:38.038Z,9.10
2022-09-10T07:13:08.241Z,9.20
2022-09-10T07:15:38.799Z,10.70
2022-09-10T07:18:12.941Z,9.50
2022-09-10T07:20:44.027Z,10.40
2022-09-10T07:23:18.871Z,10.60
2022-09-10T07:25:49.103Z,10.90
2022-09-10T07:28:37.360Z,11.20
2022-09-10T07:31:15.164Z,9.20
2022-09-10T07:33:46.264Z,10.50
2022-09-10T07:36:15.847Z,10.30
2022-09-10T07:38:46.812Z,9.10
2022-09-10T07:41:15.916Z,9.40
2022-09-10T07:43:45.001Z,10.30
2022-09-10T07:46:21.371Z,8.10
2022-09-10T07:48:58.393Z,9.20
2022-09-10T07:51:29.445Z,10.20
2022-09-10T07:54:00.431Z,8.90
2022-09-10T07:56:36.891Z,9.50
2022-09-10T07:59:08.453Z,9.00
2022-09-10T08:01:46.805Z,9.40
2022-09-10T08:04:17.193Z,10.00
2022-09-10T08:06:46.639Z,9.50
2022-09-10T08:09:15.481Z,10.60
2022-09-10T08:11:50.937Z,10.70
2022-09-10T08:14:22.272Z,10.80
2022-09-10T08:16:53.413Z,11.70
2022-09-10T08:19:23.326Z,11.00
2022-09-10T08:21:53.251Z,12.30
2022-09-10T08:24:28.584Z,11.50
2022-09-10T08:26:57.266Z,9.90
2022-09-10T08:29:27.696Z,11.10
2022-09-10T08:31:56.482Z,10.20
2022-09-10T08:34:30.183Z,10.20
2022-09-10T08:37:06.659Z,10.80
2022-09-10T08:39:36.530Z,10.60
2022-09-10T08:42:16.824Z,10.50
2022-09-10T08:44:52.474Z,9.70
2022-09-10T08:47:59.766Z,9.00
2022-09-10T08:50:33.472Z,10.10
2022-09-10T08:53:30.210Z,9.20
2022-09-10T08:56:05.532Z,10.20
2022-09-10T08:58:42.668Z,8.50
2022-09-10T09:01:25.022Z,8.20
2022-09-10T09:03:57.646Z,8.20
2022-09-10T09:06:39.012Z,8.00
2022-09-10T09:09:14.836Z,7.00
2022-09-10T09:12:16.210Z,7.20
2022-09-10T09:14:48.276Z,5.40
2022-09-10T09:18:00.276Z,6.60
2022-09-10T09:20:32.028Z,6.20
2022-09-10T09:23:25.393Z,6.40
2022-09-10T09:26:20.603Z,5.80
2022-09-10T09:29:00.657Z,5.80
2022-09-10T09:31:33.650Z,6.60
2022-09-10T09:34:19.532Z,5.50
2022-09-10T09:37:01.424Z,5.60
2022-09-10T09:39:47.990Z,6.10
2022-09-10T09:42:23.268Z,5.50
2022-09-10T09:45:07.823Z,6.70
2022-09-10T09:47:37.129Z,6.60
2022-09-10T09:50:06.321Z,7.30
2022-09-10T09:52:35.834Z,7.00
2022-09-10T09:55:15.499Z,6.20
2022-09-10T09:57:44.773Z,6.40
2022-09-10T10:00:37.490Z,6.60
2022-09-10T10:03:20.851Z,7.00
2022-09-10T10:05:49.843Z,7.40
2022-09-10T10:08:32.226Z,8.60
2022-09-10T10:11:01.846Z,8.50
2022-09-10T10:13:42.769Z,11.10
2022-09-10T10:16:21.347Z,6.10
2022-09-10T10:18:51.054Z,6.80
2022-09-10T10:21:31.922Z,5.40
2022-09-10T10:24:04.301Z,5.70
2022-09-10T10:26:36.498Z,5.90
2022-09-10T10:29:16.215Z,5.90
2022-09-10T10:31:48.482Z,5.30
2022-09-10T10:34:32.938Z,6.10
2022-09-10T10:37:35.524Z,6.00
2022-09-10T10:40:14.889Z,6.60
2022-09-10T10:43:01.562Z,6.10
2022-09-10T10:45:37.523Z,6.80
2022-09-10T10:48:31.840Z,11.10
2022-09-10T10:51:21.785Z,7.40
2022-09-10T10:53:50.471Z,6.40
2022-09-10T10:59:04.846Z,7.20
2022-09-10T11:01:44.683Z,7.60
2022-09-10T11:04:42.568Z,7.10
2022-09-10T11:07:15.035Z,7.50
2022-09-10T11:09:52.009Z,7.30
2022-09-10T11:12:49.608Z,8.00
2022-09-10T11:15:47.594Z,8.90
2022-09-10T11:18:43.170Z,8.40
2022-09-10T11:21:27.425Z,8.90
2022-09-10T11:24:17.092Z,10.40
2022-09-10T11:26:57.049Z,10.60
2022-09-10T11:29:41.598Z,24.60
2022-09-10T11:32:30.664Z,9.60
2022-09-10T11:35:27.207Z,9.20
2022-09-10T11:38:08.181Z,8.00
2022-09-10T11:41:14.441Z,8.50
2022-09-10T11:43:56.543Z,9.70
2022-09-10T11:46:54.307Z,7.70
2022-09-10T11:49:37.026Z,7.70
2022-09-10T11:52:05.915Z,8.50
2022-09-10T11:54:36.134Z,7.40
2022-09-10T11:57:32.675Z,8.00
2022-09-10T12:00:21.219Z,7.80
2022-09-10T12:03:08.343Z,6.60
2022-09-10T12:05:55.256Z,7.60
2022-09-10T12:08:51.489Z,7.50
2022-09-10T12:11:25.294Z,7.30
2022-09-10T12:13:54.181Z,7.30
2022-09-10T12:16:47.957Z,7.20
2022-09-10T12:19:47.666Z,7.80
2022-09-10T12:22:31.305Z,8.30
2022-09-10T12:25:04.296Z,8.20
2022-09-10T12:27:50.182Z,8.20
2022-09-10T12:30:29.521Z,8.40
2022-09-10T12:33:03.174Z,7.50
2022-09-10T12:35:31.902Z,7.10
2022-09-10T12:38:38.271Z,7.90
2022-09-10T12:41:21.702Z,7.60
2022-09-10T12:43:53.462Z,7.70
2022-09-10T12:46:25.861Z,6.80
2022-09-10T12:48:55.749Z,7.10
2022-09-10T12:51:34.478Z,8.20
2022-09-10T12:54:40.642Z,8.50
2022-09-10T12:57:51.018Z,7.30
2022-09-10T13:00:24.171Z,8.00
2022-09-10T13:03:11.446Z,8.30
2022-09-10T13:05:47.773Z,8.00
2022-09-10T13:08:16.455Z,8.60
2022-09-10T13:11:00.195Z,9.50
2022-09-10T13:13:37.815Z,8.50
2022-09-10T13:16:16.306Z,7.80
2022-09-10T13:18:46.871Z,7.70
2022-09-10T13:21:24.435Z,8.20
2022-09-10T13:23:57.618Z,8.90
2022-09-10T13:26:33.989Z,8.00
2022-09-10T13:29:34.321Z,8.80
2022-09-10T13:32:14.414Z,7.70
2022-09-10T13:35:22.580Z,8.70
2022-09-10T13:38:12.977Z,8.40
2022-09-10T13:40:47.291Z,7.40
2022-09-10T13:43:28.270Z,7.50
2022-09-10T13:46:02.200Z,8.50
2022-09-10T13:48:44.887Z,7.30
2022-09-10T13:51:32.616Z,7.90
2022-09-10T13:54:15.436Z,8.00
2022-09-10T13:56:46.271Z,6.90
2022-09-10T13:59:24.286Z,7.40
2022-09-10T14:01:55.508Z,7.80
2022-09-10T14:04:38.437Z,6.70
2022-09-10T14:07:14.708Z,7.20
2022-09-10T14:09:46.975Z,6.30
2022-09-10T14:12:18.527Z,6.60
2022-09-10T14:14:55.711Z,5.30
2022-09-10T14:17:35.864Z,5.80
2022-09-10T14:20:32.196Z,5.60
2022-09-10T14:23:13.067Z,4.10
2022-09-10T14:25:44.212Z,4.00
2022-09-10T14:28:16.069Z,3.70
2022-09-10T14:30:46.167Z,3.00
2022-09-10T14:33:33.211Z,2.70
2022-09-10T14:36:23.403Z,2.70
2022-09-10T14:39:13.807Z,2.90
2022-09-10T14:41:43.502Z,2.70
2022-09-10T14:44:22.639Z,3.00
2022-09-10T14:46:51.865Z,3.90
2022-09-10T14:49:28.193Z,3.60
2022-09-10T14:51:58.763Z,3.80
2022-09-10T14:54:29.812Z,3.50
2022-09-10T14:57:04.147Z,3.40
2022-09-10T14:59:36.577Z,3.00
2022-09-10T15:02:23.164Z,2.90
2022-09-10T15:04:52.611Z,2.40
2022-09-10T15:07:23.921Z,2.20
2022-09-10T15:09:54.337Z,2.10
2022-09-10T15:12:30.617Z,2.30
2022-09-10T15:14:59.491Z,1.60
2022-09-10T15:17:28.484Z,1.70
2022-09-10T15:19:57.221Z,1.40
2022-09-10T15:22:30.056Z,1.80
2022-09-10T15:25:09.519Z,1.40
2022-09-10T15:27:39.820Z,1.60
2022-09-10T15:30:08.912Z,1.80
2022-09-10T15:32:37.501Z,1.40
2022-09-10T15:35:06.996Z,1.70
2022-09-10T15:37:35.680Z,1.40
2022-09-10T15:40:05.022Z,1.70
2022-09-10T15:42:36.023Z,1.90
2022-09-10T15:45:05.127Z,1.70
2022-09-10T15:47:33.909Z,1.80
2022-09-10T15:50:05.048Z,1.50
2022-09-10T15:52:33.736Z,1.60
2022-09-10T15:55:02.528Z,2.40
2022-09-10T15:57:31.621Z,1.70
2022-09-10T16:00:04.817Z,1.30
2022-09-10T16:02:34.336Z,1.70
2022-09-10T16:07:32.007Z,1.50
2022-09-10T16:10:01.306Z,2.40
2022-09-10T16:12:32.233Z,1.60
2022-09-10T16:15:01.637Z,1.80
2022-09-10T16:17:32.061Z,2.30
2022-09-10T16:20:01.255Z,2.40
2022-09-10T16:22:32.045Z,2.10
2022-09-10T16:25:00.678Z,2.20
2022-09-10T16:27:29.873Z,2.40
2022-09-10T16:29:58.661Z,2.00
2022-09-10T16:32:29.089Z,2.30
2022-09-10T16:34:57.992Z,2.50
2022-09-10T16:37:26.947Z,2.70
2022-09-10T16:39:56.827Z,2.50
2022-09-10T16:44:54.360Z,3.00
2022-09-10T16:47:23.969Z,2.80
2022-09-10T16:49:52.780Z,1.80
2022-09-10T16:54:53.013Z,2.00
2022-09-10T16:57:21.579Z,2.50
2022-09-10T16:59:52.271Z,2.10
2022-09-10T17:02:21.423Z,2.30
2022-09-10T17:04:50.309Z,2.90
2022-09-10T17:07:19.903Z,2.60
2022-09-10T17:09:48.485Z,2.30
2022-09-10T17:12:17.482Z,2.50
2022-09-10T17:14:46.369Z,2.60
2022-09-10T17:17:15.055Z,2.60
2022-09-10T17:19:44.153Z,2.40
2022-09-10T17:22:12.731Z,2.00
2022-09-10T17:24:42.031Z,2.60
2022-09-10T17:27:11.743Z,2.70
2022-09-10T17:29:41.454Z,3.50
2022-09-10T17:32:10.036Z,4.30
2022-09-10T17:34:39.233Z,4.80
2022-09-10T17:37:08.802Z,4.20
2022-09-10T17:42:06.730Z,3.10
2022-09-10T17:44:35.314Z,3.70
2022-09-10T17:47:04.711Z,3.60
2022-09-10T17:49:33.597Z,3.70
2022-09-10T17:52:03.630Z,3.70
2022-09-10T17:54:32.201Z,3.30
2022-09-10T17:57:00.986Z,3.30
2022-09-10T17:59:30.492Z,2.80
2022-09-10T18:01:59.744Z,4.30
2022-09-10T18:04:28.805Z,3.90
2022-09-10T18:06:57.776Z,3.00
2022-09-10T18:09:26.808Z,3.70
2022-09-10T18:11:56.659Z,2.80
2022-09-10T18:14:26.419Z,2.80
2022-09-10T18:16:56.102Z,2.50
2022-09-10T18:19:25.402Z,3.00
2022-09-10T18:21:54.002Z,2.90
2022-09-10T18:24:24.618Z,2.90
2022-09-10T18:26:55.155Z,3.00
2022-09-10T18:29:27.070Z,2.70
2022-09-10T18:31:58.114Z,2.90
2022-09-10T18:34:29.397Z,2.60
2022-09-10T18:37:02.742Z,2.90
2022-09-10T18:39:32.736Z,2.80
2022-09-10T18:42:01.900Z,2.60
2022-09-10T18:44:34.395Z,3.90
2022-09-10T18:47:14.269Z,3.50
2022-09-10T18:49:51.306Z,5.50
2022-09-10T18:52:19.887Z,3.90
2022-09-10T18:54:48.830Z,2.50
2022-09-10T18:57:18.179Z,3.30
2022-09-10T18:59:48.000Z,3.20
2022-09-10T19:02:18.261Z,3.00
2022-09-10T19:05:09.769Z,3.90
2022-09-10T19:07:37.605Z,3.70
2022-09-10T19:10:07.416Z,3.60
2022-09-10T19:15:05.096Z,3.10
2022-09-10T19:17:33.675Z,3.30
2022-09-10T19:20:02.772Z,3.30
2022-09-10T19:22:31.354Z,3.30
2022-09-10T19:24:59.935Z,3.10
2022-09-10T19:27:29.746Z,3.10
2022-09-10T19:29:58.338Z,3.10
2022-09-10T19:32:27.429Z,2.90
2022-09-10T19:34:56.724Z,3.10
2022-09-10T19:37:25.312Z,3.30
2022-09-10T19:39:56.598Z,4.60
2022-09-10T19:42:25.348Z,3.90
2022-09-10T19:44:53.924Z,3.10
2022-09-10T19:47:22.839Z,3.20
2022-09-10T19:49:51.809Z,3.40
2022-09-10T19:52:22.033Z,3.90
2022-09-10T19:54:50.717Z,3.30
2022-09-10T19:57:19.403Z,2.90
2022-09-10T19:59:48.853Z,3.30
2022-09-10T20:02:17.940Z,3.10
2022-09-10T20:04:46.992Z,2.90
2022-09-10T20:07:15.611Z,3.40
2022-09-10T20:09:44.783Z,3.00
2022-09-10T20:12:16.529Z,4.50
2022-09-10T20:14:45.112Z,5.60
2022-09-10T20:17:13.900Z,6.80
2022-09-10T20:19:42.691Z,5.80
2022-09-10T20:22:11.686Z,6.70
2022-09-10T20:24:40.265Z,5.80
2022-09-10T20:27:08.954Z,7.10
2022-09-10T20:29:37.947Z,6.60
2022-09-10T20:32:07.349Z,7.50
2022-09-10T20:34:37.058Z,5.40
2022-09-10T20:39:35.025Z,5.20
2022-09-10T20:42:04.914Z,5.20
2022-09-10T20:44:33.538Z,7.80
2022-09-10T20:47:03.871Z,8.40
2022-09-10T20:49:32.759Z,6.40
2022-09-10T20:52:02.259Z,5.10
2022-09-10T20:54:30.944Z,5.40
2022-09-10T20:56:59.636Z,5.40
2022-09-10T20:59:29.449Z,5.20
2022-09-10T21:01:58.296Z,5.00
2022-09-10T21:04:27.331Z,5.00
2022-09-10T21:06:56.115Z,4.90
2022-09-10T21:09:25.213Z,4.30
2022-09-10T21:11:53.900Z,3.70
2022-09-10T21:14:22.997Z,4.50
2022-09-10T21:16:52.193Z,4.40
2022-09-10T21:19:22.616Z,4.30
2022-09-10T21:21:51.296Z,4.90
2022-09-10T21:24:27.053Z,5.20
2022-09-10T21:26:57.474Z,7.20
2022-09-10T21:29:26.693Z,5.90
2022-09-10T21:31:56.491Z,6.20
2022-09-10T21:34:25.379Z,6.60
2022-09-10T21:36:54.060Z,5.60
2022-09-10T21:39:22.963Z,5.70
2022-09-10T21:41:52.048Z,6.10
2022-09-10T21:44:23.407Z,5.50
2022-09-10T21:46:53.522Z,6.90
2022-09-10T21:49:22.465Z,4.70
2022-09-10T21:51:51.505Z,7.50
2022-09-10T21:54:22.450Z,6.70
2022-09-10T21:56:52.392Z,5.70
2022-09-10T21:59:21.699Z,5.70
2022-09-10T22:01:50.664Z,4.90
2022-09-10T22:04:22.871Z,4.50
2022-09-10T22:06:54.537Z,6.00
2022-09-10T22:09:24.566Z,5.60
2022-09-10T22:11:54.548Z,5.00
2022-09-10T22:19:25.380Z,4.70
2022-09-10T22:21:56.320Z,5.30
2022-09-10T22:24:26.531Z,5.40
2022-09-10T22:26:56.659Z,5.80
2022-09-10T22:29:25.656Z,4.30
2022-09-10T22:31:55.240Z,4.80
2022-09-10T22:34:25.201Z,4.20
2022-09-10T22:39:23.579Z,4.80
2022-09-10T22:41:52.662Z,5.30
2022-09-10T22:44:23.527Z,6.40
2022-09-10T22:46:52.316Z,6.00
2022-09-10T22:49:22.410Z,6.30
2022-09-10T22:54:20.799Z,5.40
2022-09-10T22:56:49.896Z,5.20
2022-09-10T22:59:19.712Z,5.70
2022-09-10T23:01:48.871Z,5.40
2022-09-10T23:04:18.618Z,6.10
2022-09-10T23:06:47.713Z,4.80
2022-09-10T23:09:18.243Z,4.50
2022-09-10T23:11:47.854Z,4.20
2022-09-10T23:14:22.468Z,4.90
2022-09-10T23:16:52.280Z,4.70
2022-09-10T23:19:24.625Z,6.50
2022-09-10T23:21:55.691Z,5.40
2022-09-10T23:24:26.931Z,5.30
2022-09-10T23:26:56.250Z,5.00
2022-09-10T23:29:25.334Z,5.70
2022-09-10T23:31:54.682Z,4.00
2022-09-10T23:34:24.742Z,4.50
2022-09-10T23:36:54.781Z,4.90
2022-09-10T23:39:25.287Z,4.90
2022-09-10T23:41:57.078Z,5.80
2022-09-10T23:44:27.088Z,4.90
2022-09-10T23:46:57.536Z,4.90
2022-09-10T23:49:27.158Z,5.70
2022-09-10T23:51:56.510Z,5.20
2022-09-10T23:54:25.926Z,4.60
2022-09-10T23:56:55.117Z,4.10
2022-09-10T23:59:25.667Z,6.00
